createdAt,value
2018-06-18T00:00:09.422Z,4.00
2018-06-18T00:01:09.390Z,4.00
2018-06-18T00:02:09.402Z,4.00
2018-06-18T00:03:09.427Z,4.00
2018-06-18T00:04:09.471Z,4.00
2018-06-18T00:05:09.467Z,4.00
2018-06-18T00:06:09.481Z,4.00
2018-06-18T00:07:09.512Z,4.00
2018-06-18T00:08:09.527Z,4.00
2018-06-18T00:09:09.545Z,4.00
2018-06-18T00:10:09.563Z,4.00
2018-06-18T00:11:09.671Z,4.00
2018-06-18T00:12:09.658Z,4.00
2018-06-18T00:13:09.627Z,4.00
2018-06-18T00:14:09.647Z,4.00
2018-06-18T00:15:09.663Z,4.00
2018-06-18T00:16:09.686Z,4.00
2018-06-18T00:17:09.752Z,4.00
2018-06-18T00:18:09.773Z,4.00
2018-06-18T00:19:09.741Z,4.00
2018-06-18T00:20:09.762Z,4.00
2018-06-18T00:21:09.785Z,4.00
2018-06-18T00:22:09.799Z,4.00
2018-06-18T00:23:09.870Z,4.00
2018-06-18T00:24:09.846Z,4.00
2018-06-18T00:25:09.863Z,4.00
2018-06-18T00:26:09.886Z,4.00
2018-06-18T00:27:09.900Z,4.00
2018-06-18T00:28:09.924Z,4.00
2018-06-18T00:29:09.944Z,4.00
2018-06-18T00:30:10.032Z,4.00
2018-06-18T00:31:09.977Z,4.00
2018-06-18T00:32:09.999Z,4.00
2018-06-18T00:33:10.021Z,4.00
2018-06-18T00:34:10.043Z,4.00
2018-06-18T00:35:10.109Z,4.00
2018-06-18T00:36:10.112Z,4.00
2018-06-18T00:37:10.101Z,4.00
2018-06-18T00:38:10.124Z,4.00
2018-06-18T00:39:10.140Z,4.00
2018-06-18T00:40:10.164Z,4.00
2018-06-18T00:41:10.186Z,4.00
2018-06-18T00:42:10.295Z,4.00
2018-06-18T00:43:10.232Z,4.00
2018-06-18T00:44:10.239Z,4.00
2018-06-18T00:45:10.275Z,4.00
2018-06-18T00:46:10.280Z,4.00
2018-06-18T00:47:10.304Z,4.00
2018-06-18T00:48:10.351Z,4.00
2018-06-18T00:49:10.338Z,4.00
2018-06-18T00:50:10.362Z,4.00
2018-06-18T00:51:10.393Z,4.00
2018-06-18T00:52:10.407Z,4.00
2018-06-18T00:53:10.424Z,4.00
2018-06-18T00:54:10.447Z,4.00
2018-06-18T00:55:10.462Z,4.00
2018-06-18T00:56:10.481Z,4.00
2018-06-18T00:57:10.502Z,4.00
2018-06-18T00:58:10.520Z,4.00
2018-06-18T00:59:10.536Z,0.00
2018-06-18T01:00:10.613Z,4.00
2018-06-18T01:01:10.592Z,4.00
2018-06-18T01:02:10.598Z,4.00
2018-06-18T01:03:10.621Z,4.00
2018-06-18T01:04:10.642Z,4.00
2018-06-18T01:05:10.664Z,4.00
2018-06-18T01:06:10.733Z,4.00
2018-06-18T01:07:10.710Z,4.00
2018-06-18T01:08:10.720Z,4.00
2018-06-18T01:09:10.741Z,4.00
2018-06-18T01:10:10.764Z,4.00
2018-06-18T01:11:10.783Z,4.00
2018-06-18T01:12:10.847Z,4.00
2018-06-18T01:13:10.821Z,4.00
2018-06-18T01:14:10.844Z,4.00
2018-06-18T01:15:10.867Z,4.00
2018-06-18T01:16:10.880Z,4.00
2018-06-18T01:17:10.900Z,4.00
2018-06-18T01:18:10.968Z,4.00
2018-06-18T01:19:10.935Z,4.00
2018-06-18T01:20:10.959Z,4.00
2018-06-18T01:21:10.980Z,4.00
2018-06-18T01:22:10.995Z,4.00
2018-06-18T01:23:11.024Z,4.00
2018-06-18T01:24:11.043Z,4.00
2018-06-18T01:25:11.061Z,4.00
2018-06-18T01:26:11.123Z,4.00
2018-06-18T01:27:11.095Z,4.00
2018-06-18T01:28:11.113Z,4.00
2018-06-18T01:29:11.137Z,4.00
2018-06-18T01:30:11.209Z,4.00
2018-06-18T01:31:11.179Z,4.00
2018-06-18T01:32:11.201Z,4.00
2018-06-18T01:33:11.214Z,4.00
2018-06-18T01:34:11.233Z,4.00
2018-06-18T01:35:11.262Z,4.00
2018-06-18T01:36:11.330Z,4.00
2018-06-18T01:37:11.296Z,4.00
2018-06-18T01:38:11.315Z,4.00
2018-06-18T01:39:11.341Z,4.00
2018-06-18T01:40:11.357Z,4.00
2018-06-18T01:41:11.374Z,4.00
2018-06-18T01:42:11.409Z,4.00
2018-06-18T01:43:11.412Z,4.00
2018-06-18T01:44:11.439Z,4.00
2018-06-18T01:45:11.460Z,4.00
2018-06-18T01:46:11.482Z,4.00
2018-06-18T01:47:11.499Z,4.00
2018-06-18T01:48:11.521Z,4.00
2018-06-18T01:49:11.538Z,4.00
2018-06-18T01:50:11.556Z,4.00
2018-06-18T01:51:11.578Z,4.00
2018-06-18T01:52:11.599Z,4.00
2018-06-18T01:53:11.617Z,4.00
2018-06-18T01:54:11.641Z,4.00
2018-06-18T01:55:11.659Z,4.00
2018-06-18T01:56:11.681Z,4.00
2018-06-18T01:57:11.702Z,4.00
2018-06-18T01:58:11.718Z,4.00
2018-06-18T01:59:11.740Z,4.00
2018-06-18T02:00:11.759Z,4.00
2018-06-18T02:01:11.780Z,4.00
2018-06-18T02:02:11.801Z,4.00
2018-06-18T02:03:11.820Z,4.00
2018-06-18T02:04:11.834Z,4.00
2018-06-18T02:05:11.859Z,4.00
2018-06-18T02:06:11.925Z,4.00
2018-06-18T02:07:11.897Z,4.00
2018-06-18T02:08:11.917Z,4.00
2018-06-18T02:09:11.998Z,4.00
2018-06-18T02:10:11.958Z,4.00
2018-06-18T02:11:11.977Z,4.00
2018-06-18T02:12:12.045Z,4.00
2018-06-18T02:13:12.013Z,4.00
2018-06-18T02:14:12.038Z,4.00
2018-06-18T02:15:12.056Z,4.00
2018-06-18T02:16:12.127Z,4.00
2018-06-18T02:17:12.094Z,4.00
2018-06-18T02:18:12.166Z,4.00
2018-06-18T02:19:12.141Z,4.00
2018-06-18T02:20:12.157Z,4.00
2018-06-18T02:21:12.175Z,4.00
2018-06-18T02:22:12.194Z,4.00
2018-06-18T02:23:12.217Z,4.00
2018-06-18T02:24:12.286Z,4.00
2018-06-18T02:25:12.257Z,4.00
2018-06-18T02:26:12.279Z,4.00
2018-06-18T02:27:12.292Z,4.00
2018-06-18T02:28:12.318Z,4.00
2018-06-18T02:29:12.333Z,4.00
2018-06-18T02:30:12.404Z,4.00
2018-06-18T02:31:12.372Z,4.00
2018-06-18T02:32:12.399Z,4.00
2018-06-18T02:33:12.415Z,4.00
2018-06-18T02:34:12.433Z,4.00
2018-06-18T02:35:12.456Z,4.00
2018-06-18T02:36:12.528Z,4.00
2018-06-18T02:37:12.506Z,4.00
2018-06-18T02:38:12.517Z,4.00
2018-06-18T02:39:12.540Z,4.00
2018-06-18T02:40:12.571Z,4.00
2018-06-18T02:41:12.575Z,4.00
2018-06-18T02:42:12.650Z,4.00
2018-06-18T02:43:12.616Z,4.00
2018-06-18T02:44:12.711Z,4.00
2018-06-18T02:45:12.653Z,4.00
2018-06-18T02:46:12.691Z,4.00
2018-06-18T02:47:12.696Z,4.00
2018-06-18T02:48:12.765Z,4.00
2018-06-18T02:49:12.736Z,4.00
2018-06-18T02:50:12.751Z,4.00
2018-06-18T02:51:12.773Z,4.00
2018-06-18T02:52:12.837Z,4.00
2018-06-18T02:53:12.818Z,4.00
2018-06-18T02:54:12.834Z,4.00
2018-06-18T02:55:12.855Z,4.00
2018-06-18T02:56:12.875Z,4.00
2018-06-18T02:57:12.892Z,4.00
2018-06-18T02:58:12.956Z,4.00
2018-06-18T02:59:12.934Z,4.00
2018-06-18T03:00:12.957Z,4.00
2018-06-18T03:01:12.969Z,4.00
2018-06-18T03:02:12.992Z,4.00
2018-06-18T03:03:13.018Z,4.00
2018-06-18T03:04:13.033Z,4.00
2018-06-18T03:05:13.053Z,4.00
2018-06-18T03:06:13.172Z,4.00
2018-06-18T03:07:13.092Z,4.00
2018-06-18T03:08:13.116Z,4.00
2018-06-18T03:09:13.136Z,4.00
2018-06-18T03:10:13.157Z,4.00
2018-06-18T03:11:13.177Z,4.00
2018-06-18T03:12:13.194Z,4.00
2018-06-18T03:13:13.216Z,4.00
2018-06-18T03:14:13.238Z,4.00
2018-06-18T03:15:13.257Z,4.00
2018-06-18T03:16:13.275Z,4.00
2018-06-18T03:17:13.365Z,4.00
2018-06-18T03:18:13.364Z,4.00
2018-06-18T03:19:13.337Z,4.00
2018-06-18T03:20:13.352Z,4.00
2018-06-18T03:21:13.375Z,4.00
2018-06-18T03:22:13.492Z,4.00
2018-06-18T03:23:13.444Z,4.00
2018-06-18T03:24:13.482Z,4.00
2018-06-18T03:25:13.454Z,4.00
2018-06-18T03:26:13.472Z,4.00
2018-06-18T03:27:13.496Z,4.00
2018-06-18T03:28:13.510Z,4.00
2018-06-18T03:29:13.606Z,4.00
2018-06-18T03:30:13.608Z,4.00
2018-06-18T03:31:13.574Z,4.00
2018-06-18T03:32:13.595Z,4.00
2018-06-18T03:33:13.613Z,4.00
2018-06-18T03:34:13.634Z,4.00
2018-06-18T03:35:13.655Z,4.00
2018-06-18T03:36:13.721Z,4.00
2018-06-18T03:37:13.707Z,4.00
2018-06-18T03:38:13.714Z,4.00
2018-06-18T03:39:13.731Z,4.00
2018-06-18T03:40:13.755Z,4.00
2018-06-18T03:41:13.767Z,4.00
2018-06-18T03:42:13.872Z,4.00
2018-06-18T03:43:13.813Z,4.00
2018-06-18T03:44:13.831Z,4.00
2018-06-18T03:45:13.849Z,4.00
2018-06-18T03:46:13.872Z,4.00
2018-06-18T03:47:13.923Z,4.00
2018-06-18T03:48:14.038Z,4.00
2018-06-18T03:49:13.928Z,4.00
2018-06-18T03:50:13.950Z,4.00
2018-06-18T03:51:13.968Z,4.00
2018-06-18T03:52:13.991Z,4.00
2018-06-18T03:53:14.017Z,4.00
2018-06-18T03:54:14.051Z,4.00
2018-06-18T03:55:14.048Z,4.00
2018-06-18T03:56:14.071Z,4.00
2018-06-18T03:57:14.093Z,4.00
2018-06-18T03:58:14.106Z,4.00
2018-06-18T03:59:14.135Z,4.00
2018-06-18T04:00:14.201Z,4.00
2018-06-18T04:01:14.165Z,4.00
2018-06-18T04:02:14.190Z,4.00
2018-06-18T04:03:14.206Z,4.00
2018-06-18T04:04:14.223Z,4.00
2018-06-18T04:05:14.261Z,4.00
2018-06-18T04:06:14.319Z,4.00
2018-06-18T04:07:14.289Z,4.00
2018-06-18T04:08:14.309Z,4.00
2018-06-18T04:09:14.325Z,4.00
2018-06-18T04:10:14.350Z,4.00
2018-06-18T04:11:14.370Z,4.00
2018-06-18T04:12:14.455Z,4.00
2018-06-18T04:13:14.453Z,4.00
2018-06-18T04:14:14.425Z,4.00
2018-06-18T04:15:14.448Z,4.00
2018-06-18T04:16:14.467Z,4.00
2018-06-18T04:17:14.490Z,4.00
2018-06-18T04:18:14.554Z,4.00
2018-06-18T04:19:14.527Z,4.00
2018-06-18T04:20:14.550Z,4.00
2018-06-18T04:21:14.562Z,4.00
2018-06-18T04:22:14.588Z,4.00
2018-06-18T04:23:14.603Z,4.00
2018-06-18T04:24:14.677Z,4.00
2018-06-18T04:25:14.648Z,4.00
2018-06-18T04:26:14.661Z,4.00
2018-06-18T04:27:14.685Z,4.00
2018-06-18T04:28:14.706Z,4.00
2018-06-18T04:29:14.726Z,4.00
2018-06-18T04:30:14.794Z,4.00
2018-06-18T04:31:14.771Z,4.00
2018-06-18T04:32:14.867Z,4.00
2018-06-18T04:33:14.804Z,4.00
2018-06-18T04:34:14.827Z,0.00
2018-06-18T04:35:14.843Z,0.00
2018-06-18T04:36:14.918Z,0.00
2018-06-18T04:37:14.884Z,0.00
2018-06-18T04:38:14.907Z,0.00
2018-06-18T04:39:14.922Z,0.00
2018-06-18T04:40:14.945Z,0.00
2018-06-18T04:41:14.966Z,4.00
2018-06-18T04:42:15.032Z,4.00
2018-06-18T04:43:15.008Z,4.00
2018-06-18T04:44:15.025Z,4.00
2018-06-18T04:45:15.042Z,4.00
2018-06-18T04:46:15.063Z,4.00
2018-06-18T04:47:15.082Z,4.00
2018-06-18T04:48:15.153Z,4.00
2018-06-18T04:49:15.126Z,4.00
2018-06-18T04:50:15.143Z,4.00
2018-06-18T04:51:15.163Z,4.00
2018-06-18T04:52:15.174Z,4.00
2018-06-18T04:53:15.198Z,8.00
2018-06-18T04:54:15.274Z,8.00
2018-06-18T04:55:15.238Z,12.00
2018-06-18T04:56:15.262Z,8.00
2018-06-18T04:57:15.279Z,12.00
2018-06-18T04:58:15.297Z,16.00
2018-06-18T04:59:15.317Z,16.00
2018-06-18T05:00:15.387Z,20.00
2018-06-18T05:01:15.361Z,20.00
2018-06-18T05:02:15.376Z,24.00
2018-06-18T05:03:15.426Z,24.00
2018-06-18T05:04:15.414Z,32.00
2018-06-18T05:05:15.441Z,32.00
2018-06-18T05:06:15.503Z,40.00
2018-06-18T05:07:15.476Z,44.00
2018-06-18T05:08:15.498Z,52.00
2018-06-18T05:09:15.530Z,56.00
2018-06-18T05:10:15.539Z,64.00
2018-06-18T05:11:15.555Z,72.00
2018-06-18T05:12:15.632Z,80.00
2018-06-18T05:13:15.593Z,84.00
2018-06-18T05:14:15.617Z,96.00
2018-06-18T05:15:15.660Z,104.00
2018-06-18T05:16:15.657Z,116.00
2018-06-18T05:17:15.673Z,124.00
2018-06-18T05:18:15.744Z,132.00
2018-06-18T05:19:15.708Z,144.00
2018-06-18T05:20:15.748Z,152.00
2018-06-18T05:21:15.753Z,156.00
2018-06-18T05:22:15.778Z,164.00
2018-06-18T05:23:15.791Z,176.00
2018-06-18T05:24:15.867Z,184.00
2018-06-18T05:25:15.834Z,192.00
2018-06-18T05:26:15.856Z,200.00
2018-06-18T05:27:15.878Z,216.00
2018-06-18T05:28:15.895Z,224.00
2018-06-18T05:29:15.908Z,240.00
2018-06-18T05:30:15.981Z,256.00
2018-06-18T05:31:15.947Z,272.00
2018-06-18T05:32:15.974Z,292.00
2018-06-18T05:33:15.992Z,308.00
2018-06-18T05:34:16.073Z,332.00
2018-06-18T05:35:16.040Z,352.00
2018-06-18T05:36:16.106Z,372.00
2018-06-18T05:37:16.069Z,396.00
2018-06-18T05:38:16.087Z,416.00
2018-06-18T05:39:16.108Z,436.00
2018-06-18T05:40:16.132Z,456.00
2018-06-18T05:41:16.146Z,476.00
2018-06-18T05:42:16.222Z,496.00
2018-06-18T05:43:16.188Z,520.00
2018-06-18T05:44:16.211Z,544.00
2018-06-18T05:45:16.228Z,568.00
2018-06-18T05:46:16.325Z,604.00
2018-06-18T05:47:16.270Z,624.00
2018-06-18T05:48:16.340Z,656.00
2018-06-18T05:49:16.311Z,716.00
2018-06-18T05:50:16.326Z,756.00
2018-06-18T05:51:16.342Z,792.00
2018-06-18T05:52:16.371Z,816.00
2018-06-18T05:53:16.388Z,848.00
2018-06-18T05:54:16.454Z,872.00
2018-06-18T05:55:16.424Z,880.00
2018-06-18T05:56:16.441Z,900.00
2018-06-18T05:57:16.466Z,924.00
2018-06-18T05:58:16.488Z,956.00
2018-06-18T05:59:16.506Z,984.00
2018-06-18T06:00:16.580Z,1024.00
2018-06-18T06:01:16.550Z,1056.00
2018-06-18T06:02:16.567Z,1084.00
2018-06-18T06:03:16.585Z,1108.00
2018-06-18T06:04:16.604Z,1140.00
2018-06-18T06:05:16.626Z,1164.00
2018-06-18T06:06:16.696Z,1188.00
2018-06-18T06:07:16.663Z,1212.00
2018-06-18T06:08:16.688Z,1236.00
2018-06-18T06:09:16.701Z,1260.00
2018-06-18T06:10:16.723Z,1284.00
2018-06-18T06:11:16.739Z,1308.00
2018-06-18T06:12:16.810Z,1328.00
2018-06-18T06:13:16.782Z,1352.00
2018-06-18T06:14:16.801Z,1372.00
2018-06-18T06:15:16.820Z,1396.00
2018-06-18T06:16:16.837Z,1420.00
2018-06-18T06:17:16.926Z,1444.00
2018-06-18T06:18:16.931Z,1472.00
2018-06-18T06:19:16.900Z,1504.00
2018-06-18T06:20:16.922Z,1536.00
2018-06-18T06:21:16.942Z,1576.00
2018-06-18T06:22:16.963Z,1632.00
2018-06-18T06:23:16.984Z,1680.00
2018-06-18T06:24:17.054Z,1728.00
2018-06-18T06:25:17.018Z,1780.00
2018-06-18T06:26:17.038Z,1840.00
2018-06-18T06:27:17.062Z,1916.00
2018-06-18T06:28:17.084Z,2012.00
2018-06-18T06:29:17.105Z,2136.00
2018-06-18T06:30:17.171Z,2304.00
2018-06-18T06:31:17.143Z,2548.00
2018-06-18T06:32:17.165Z,2864.00
2018-06-18T06:33:17.181Z,3204.00
2018-06-18T06:34:17.204Z,3504.00
2018-06-18T06:35:17.224Z,3772.00
2018-06-18T06:36:17.292Z,3988.00
2018-06-18T06:37:17.257Z,4180.00
2018-06-18T06:38:17.286Z,4328.00
2018-06-18T06:39:17.304Z,4464.00
2018-06-18T06:40:17.319Z,4576.00
2018-06-18T06:41:17.343Z,4680.00
2018-06-18T06:42:17.446Z,4792.00
2018-06-18T06:43:17.383Z,4876.00
2018-06-18T06:44:17.408Z,4968.00
2018-06-18T06:45:17.424Z,5044.00
2018-06-18T06:46:17.445Z,5096.00
2018-06-18T06:47:17.462Z,5152.00
2018-06-18T06:48:17.602Z,5240.00
2018-06-18T06:49:17.510Z,5332.00
2018-06-18T06:50:17.532Z,5392.00
2018-06-18T06:51:17.548Z,5456.00
2018-06-18T06:52:17.571Z,5548.00
2018-06-18T06:53:17.599Z,5632.00
2018-06-18T06:54:17.672Z,5712.00
2018-06-18T06:55:17.629Z,5788.00
2018-06-18T06:56:17.672Z,5856.00
2018-06-18T06:57:17.683Z,5920.00
2018-06-18T06:58:17.694Z,5980.00
2018-06-18T06:59:17.718Z,6056.00
2018-06-18T07:00:17.794Z,6124.00
2018-06-18T07:01:17.799Z,6180.00
2018-06-18T07:02:17.787Z,6244.00
2018-06-18T07:03:17.798Z,6332.00
2018-06-18T07:04:17.819Z,6356.00
2018-06-18T07:05:17.848Z,6452.00
2018-06-18T07:06:17.938Z,6528.00
2018-06-18T07:07:17.883Z,6572.00
2018-06-18T07:08:17.910Z,6656.00
2018-06-18T07:09:17.932Z,6728.00
2018-06-18T07:10:17.958Z,6788.00
2018-06-18T07:11:17.971Z,6828.00
2018-06-18T07:12:18.051Z,6900.00
2018-06-18T07:13:18.095Z,6984.00
2018-06-18T07:14:18.044Z,7080.00
2018-06-18T07:15:18.068Z,7152.00
2018-06-18T07:16:18.088Z,7244.00
2018-06-18T07:18:18.183Z,7368.00
2018-06-18T07:19:18.151Z,7396.00
2018-06-18T07:20:18.168Z,7480.00
2018-06-18T07:21:18.190Z,7560.00
2018-06-18T07:22:18.219Z,7596.00
2018-06-18T07:23:18.233Z,7704.00
2018-06-18T07:24:18.316Z,7796.00
2018-06-18T07:25:18.281Z,7884.00
2018-06-18T07:26:18.379Z,7984.00
2018-06-18T07:27:18.328Z,8052.00
2018-06-18T07:28:18.354Z,7988.00
2018-06-18T07:29:18.371Z,8024.00
2018-06-18T07:30:18.580Z,8292.00
2018-06-18T07:31:18.413Z,8352.00
2018-06-18T07:32:18.436Z,8428.00
2018-06-18T07:33:18.461Z,8496.00
2018-06-18T07:34:18.478Z,8552.00
2018-06-18T07:35:18.501Z,8608.00
2018-06-18T07:36:18.582Z,8692.00
2018-06-18T07:37:18.547Z,8760.00
2018-06-18T07:38:18.568Z,8840.00
2018-06-18T07:39:18.598Z,8920.00
2018-06-18T07:40:18.621Z,9000.00
2018-06-18T07:41:18.638Z,9052.00
2018-06-18T07:42:18.714Z,9100.00
2018-06-18T07:43:18.686Z,9192.00
2018-06-18T07:44:18.706Z,9260.00
2018-06-18T07:45:18.841Z,9324.00
2018-06-18T07:46:18.790Z,9400.00
2018-06-18T07:47:18.775Z,9512.00
2018-06-18T07:48:18.851Z,9444.00
2018-06-18T07:49:18.819Z,9448.00
2018-06-18T07:50:18.846Z,9512.00
2018-06-18T07:51:18.947Z,9720.00
2018-06-18T07:52:18.899Z,9788.00
2018-06-18T07:53:18.914Z,9772.00
2018-06-18T07:54:18.988Z,9900.00
2018-06-18T07:55:18.958Z,9932.00
2018-06-18T07:56:18.983Z,10036.00
2018-06-18T07:57:19.000Z,10148.00
2018-06-18T07:58:19.026Z,10204.00
2018-06-18T07:59:19.049Z,10268.00
2018-06-18T08:00:19.117Z,10300.00
2018-06-18T08:01:19.101Z,10368.00
2018-06-18T08:02:19.117Z,10472.00
2018-06-18T08:03:19.137Z,10528.00
2018-06-18T08:04:19.162Z,10584.00
2018-06-18T08:05:19.181Z,10652.00
2018-06-18T08:06:19.260Z,10692.00
2018-06-18T08:07:19.226Z,10764.00
2018-06-18T08:08:19.257Z,10812.00
2018-06-18T08:09:19.278Z,10876.00
2018-06-18T08:10:19.382Z,10952.00
2018-06-18T08:11:19.329Z,11024.00
2018-06-18T08:12:19.397Z,11004.00
2018-06-18T08:13:19.368Z,11124.00
2018-06-18T08:14:19.394Z,11196.00
2018-06-18T08:15:19.417Z,11236.00
2018-06-18T08:16:19.455Z,11292.00
2018-06-18T08:17:19.466Z,11360.00
2018-06-18T08:18:19.543Z,11396.00
2018-06-18T08:19:19.508Z,11480.00
2018-06-18T08:20:19.526Z,11500.00
2018-06-18T08:21:19.550Z,11568.00
2018-06-18T08:22:19.584Z,11032.00
2018-06-18T08:23:19.598Z,11708.00
2018-06-18T08:24:19.673Z,11612.00
2018-06-18T08:25:19.651Z,11840.00
2018-06-18T08:26:19.668Z,11912.00
2018-06-18T08:27:19.696Z,11964.00
2018-06-18T08:28:19.712Z,12004.00
2018-06-18T08:29:19.741Z,12112.00
2018-06-18T08:30:19.810Z,12136.00
2018-06-18T08:31:19.787Z,12252.00
2018-06-18T08:32:19.856Z,12328.00
2018-06-18T08:33:19.833Z,12388.00
2018-06-18T08:34:19.858Z,12448.00
2018-06-18T08:35:19.881Z,12540.00
2018-06-18T08:36:19.954Z,12604.00
2018-06-18T08:37:19.926Z,12692.00
2018-06-18T08:38:19.944Z,12684.00
2018-06-18T08:39:19.969Z,12752.00
2018-06-18T08:40:19.995Z,12812.00
2018-06-18T08:41:20.088Z,12908.00
2018-06-18T08:42:20.097Z,13000.00
2018-06-18T08:44:20.093Z,13196.00
2018-06-18T08:45:20.115Z,13216.00
2018-06-18T08:46:20.146Z,13336.00
2018-06-18T08:47:20.220Z,13428.00
2018-06-18T08:48:20.233Z,13524.00
2018-06-18T08:49:20.206Z,13624.00
2018-06-18T08:50:20.237Z,13744.00
2018-06-18T08:51:20.256Z,13868.00
2018-06-18T08:52:20.283Z,14000.00
2018-06-18T08:53:20.338Z,14128.00
2018-06-18T08:54:20.378Z,14244.00
2018-06-18T08:55:20.353Z,14376.00
2018-06-18T08:56:20.379Z,14500.00
2018-06-18T08:57:20.402Z,14336.00
2018-06-18T08:58:20.432Z,14224.00
2018-06-18T08:59:20.452Z,14572.00
2018-06-18T09:00:20.533Z,14784.00
2018-06-18T09:01:20.508Z,12516.00
2018-06-18T09:02:20.527Z,11036.00
2018-06-18T09:03:20.553Z,9648.00
2018-06-18T09:04:20.575Z,13116.00
2018-06-18T09:05:20.605Z,12420.00
2018-06-18T09:06:20.711Z,9004.00
2018-06-18T09:07:20.647Z,8868.00
2018-06-18T09:08:20.671Z,9452.00
2018-06-18T09:09:20.698Z,7816.00
2018-06-18T09:10:20.732Z,8296.00
2018-06-18T09:11:20.753Z,10380.00
2018-06-18T09:12:20.845Z,8256.00
2018-06-18T09:13:20.796Z,6400.00
2018-06-18T09:14:20.820Z,6004.00
2018-06-18T09:15:20.849Z,7520.00
2018-06-18T09:16:20.876Z,9460.00
2018-06-18T09:17:20.898Z,10928.00
2018-06-18T09:18:20.925Z,7860.00
2018-06-18T09:19:20.949Z,11032.00
2018-06-18T09:20:20.971Z,10540.00
2018-06-18T09:21:20.993Z,14184.00
2018-06-18T09:22:21.022Z,13272.00
2018-06-18T09:23:21.041Z,9412.00
2018-06-18T09:24:21.063Z,4968.00
2018-06-18T09:25:21.087Z,4616.00
2018-06-18T09:26:21.122Z,4908.00
2018-06-18T09:27:21.142Z,11972.00
2018-06-18T09:28:21.166Z,10928.00
2018-06-18T09:29:21.185Z,5204.00
2018-06-18T09:30:21.270Z,6580.00
2018-06-18T09:31:21.240Z,8460.00
2018-06-18T09:32:21.490Z,10424.00
2018-06-18T09:33:21.300Z,13872.00
2018-06-18T09:34:21.304Z,12400.00
2018-06-18T09:35:21.342Z,14128.00
2018-06-18T09:36:21.410Z,14784.00
2018-06-18T09:37:21.387Z,14756.00
2018-06-18T09:38:21.401Z,14740.00
2018-06-18T09:39:21.428Z,14584.00
2018-06-18T09:40:21.453Z,14572.00
2018-06-18T09:41:21.478Z,14540.00
2018-06-18T09:42:21.501Z,14520.00
2018-06-18T09:43:21.521Z,14560.00
2018-06-18T09:44:21.547Z,14588.00
2018-06-18T09:45:21.571Z,14512.00
2018-06-18T09:46:21.597Z,14464.00
2018-06-18T09:47:21.624Z,14496.00
2018-06-18T09:48:21.699Z,14504.00
2018-06-18T09:49:21.673Z,14484.00
2018-06-18T09:50:21.695Z,14408.00
2018-06-18T09:51:21.726Z,14416.00
2018-06-18T09:52:21.743Z,14464.00
2018-06-18T09:53:21.777Z,14516.00
2018-06-18T09:54:21.794Z,13652.00
2018-06-18T09:55:21.827Z,14040.00
2018-06-18T09:56:21.848Z,14280.00
2018-06-18T09:57:21.875Z,14444.00
2018-06-18T09:58:21.900Z,14628.00
2018-06-18T09:59:21.920Z,14636.00
2018-06-18T10:00:22.002Z,14696.00
2018-06-18T10:01:21.977Z,14620.00
2018-06-18T10:02:22.001Z,15008.00
2018-06-18T10:03:22.022Z,15008.00
2018-06-18T10:04:22.050Z,14764.00
2018-06-18T10:05:22.081Z,14564.00
2018-06-18T10:06:22.106Z,14324.00
2018-06-18T10:07:22.274Z,14676.00
2018-06-18T10:08:22.292Z,14708.00
2018-06-18T10:09:22.183Z,14796.00
2018-06-18T10:10:22.207Z,15040.00
2018-06-18T10:11:22.234Z,15040.00
2018-06-18T10:12:22.463Z,15104.00
2018-06-18T10:14:22.340Z,15104.00
2018-06-18T10:15:22.335Z,14528.00
2018-06-18T10:16:22.360Z,11768.00
2018-06-18T10:17:22.383Z,15072.00
2018-06-18T10:18:22.409Z,14780.00
2018-06-18T10:19:22.476Z,15008.00
2018-06-18T10:20:22.463Z,15072.00
2018-06-18T10:21:22.489Z,14828.00
2018-06-18T10:22:22.720Z,14812.00
2018-06-18T10:23:22.545Z,15296.00
2018-06-18T10:24:22.695Z,15264.00
2018-06-18T10:25:22.647Z,15296.00
2018-06-18T10:26:22.621Z,15232.00
2018-06-18T10:27:22.643Z,15200.00
2018-06-18T10:28:22.871Z,15296.00
2018-06-18T10:29:22.907Z,15360.00
2018-06-18T10:30:22.780Z,15360.00
2018-06-18T10:31:22.782Z,15360.00
2018-06-18T10:32:22.774Z,15392.00
2018-06-18T10:33:22.800Z,15360.00
2018-06-18T10:34:22.833Z,15520.00
2018-06-18T10:35:22.855Z,15488.00
2018-06-18T10:36:22.884Z,15488.00
2018-06-18T10:37:22.912Z,15328.00
2018-06-18T10:38:22.938Z,15360.00
2018-06-18T10:39:22.961Z,15456.00
2018-06-18T10:40:22.987Z,15456.00
2018-06-18T10:41:23.017Z,15424.00
2018-06-18T10:42:23.095Z,15424.00
2018-06-18T10:43:23.068Z,15392.00
2018-06-18T10:44:23.144Z,15424.00
2018-06-18T10:45:23.126Z,15552.00
2018-06-18T10:46:23.145Z,15552.00
2018-06-18T10:47:23.172Z,15776.00
2018-06-18T10:48:23.204Z,15840.00
2018-06-18T10:49:23.233Z,15840.00
2018-06-18T10:50:23.325Z,15808.00
2018-06-18T10:51:23.297Z,15840.00
2018-06-18T10:52:23.312Z,15904.00
2018-06-18T10:53:23.386Z,15744.00
2018-06-18T10:54:23.367Z,15776.00
2018-06-18T10:55:23.397Z,15776.00
2018-06-18T10:56:23.468Z,15840.00
2018-06-18T10:57:23.446Z,15872.00
2018-06-18T10:58:23.471Z,15872.00
2018-06-18T10:59:23.561Z,16032.00
2018-06-18T11:00:23.530Z,14180.00
2018-06-18T11:01:23.553Z,15456.00
2018-06-18T11:02:23.591Z,16096.00
2018-06-18T11:03:23.613Z,16128.00
2018-06-18T11:04:23.641Z,14520.00
2018-06-18T11:05:23.717Z,15936.00
2018-06-18T11:06:23.699Z,15904.00
2018-06-18T11:07:23.718Z,15936.00
2018-06-18T11:08:23.746Z,15776.00
2018-06-18T11:09:23.839Z,15808.00
2018-06-18T11:10:23.804Z,15680.00
2018-06-18T11:11:23.833Z,15072.00
2018-06-18T11:12:23.857Z,15424.00
2018-06-18T11:13:23.885Z,15904.00
2018-06-18T11:14:23.914Z,15904.00
2018-06-18T11:15:24.000Z,15712.00
2018-06-18T11:16:24.098Z,15552.00
2018-06-18T11:17:24.414Z,15456.00
2018-06-18T11:18:24.025Z,15872.00
2018-06-18T11:19:24.053Z,16000.00
2018-06-18T11:20:24.088Z,15840.00
2018-06-18T11:21:24.134Z,15392.00
2018-06-18T11:22:24.145Z,15040.00
2018-06-18T11:23:24.220Z,15456.00
2018-06-18T11:24:24.208Z,15616.00
2018-06-18T11:25:24.228Z,15584.00
2018-06-18T11:26:24.318Z,12944.00
2018-06-18T11:27:24.290Z,13496.00
2018-06-18T11:28:24.351Z,14312.00
2018-06-18T11:29:24.445Z,15104.00
2018-06-18T11:30:24.364Z,15648.00
2018-06-18T11:31:24.400Z,15040.00
2018-06-18T11:32:24.477Z,15520.00
2018-06-18T11:33:24.449Z,11008.00
2018-06-18T11:34:24.481Z,15616.00
2018-06-18T11:35:24.560Z,15616.00
2018-06-18T11:36:24.532Z,15584.00
2018-06-18T11:37:24.564Z,16160.00
2018-06-18T11:38:24.591Z,15232.00
2018-06-18T11:39:24.673Z,15392.00
2018-06-18T11:40:24.709Z,15104.00
2018-06-18T11:41:24.724Z,15872.00
2018-06-18T11:42:24.704Z,16736.00
2018-06-18T11:43:24.807Z,16352.00
2018-06-18T11:44:24.760Z,16640.00
2018-06-18T11:45:24.790Z,15072.00
2018-06-18T11:46:24.833Z,16384.00
2018-06-18T11:47:24.896Z,16064.00
2018-06-18T11:48:24.873Z,16096.00
2018-06-18T11:49:24.907Z,16224.00
2018-06-18T11:50:24.930Z,16192.00
2018-06-18T11:51:24.960Z,15904.00
2018-06-18T11:52:24.986Z,16000.00
2018-06-18T11:53:25.020Z,16128.00
2018-06-18T11:54:25.045Z,15808.00
2018-06-18T11:55:25.078Z,15104.00
2018-06-18T11:56:25.107Z,16288.00
2018-06-18T11:57:25.135Z,16384.00
2018-06-18T11:58:25.224Z,16544.00
2018-06-18T11:59:25.237Z,16000.00
2018-06-18T12:00:25.216Z,14220.00
2018-06-18T12:01:25.316Z,15072.00
2018-06-18T12:02:25.274Z,14540.00
2018-06-18T12:03:25.308Z,14344.00
2018-06-18T12:04:25.338Z,13832.00
2018-06-18T12:05:25.367Z,13616.00
2018-06-18T12:06:25.389Z,13636.00
2018-06-18T12:07:25.424Z,14304.00
2018-06-18T12:08:25.454Z,15744.00
2018-06-18T12:09:25.486Z,15936.00
2018-06-18T12:10:25.511Z,16224.00
2018-06-18T12:11:25.622Z,15872.00
2018-06-18T12:12:25.567Z,15584.00
2018-06-18T12:13:25.596Z,15840.00
2018-06-18T12:14:25.626Z,15584.00
2018-06-18T12:15:25.646Z,15840.00
2018-06-18T12:16:25.678Z,15424.00
2018-06-18T12:17:25.757Z,14640.00
2018-06-18T12:18:25.741Z,15552.00
2018-06-18T12:19:25.766Z,15936.00
2018-06-18T12:20:25.792Z,15936.00
2018-06-18T12:21:25.824Z,15936.00
2018-06-18T12:22:25.858Z,15936.00
2018-06-18T12:23:25.962Z,15616.00
2018-06-18T12:24:25.912Z,15328.00
2018-06-18T12:25:25.941Z,15904.00
2018-06-18T12:26:25.967Z,15968.00
2018-06-18T12:27:25.996Z,15712.00
2018-06-18T12:28:26.030Z,15392.00
2018-06-18T12:29:26.057Z,15520.00
2018-06-18T12:30:26.081Z,15680.00